LOG9AW EGPF-EGAE
Flight info
| Callsign | LOG9AW |
|---|---|
| Flight time | 0h 36m |
| Altitude | 16000 |
| Route | ROBBO DCT MAC |
| Aircraft | E145/M-SDFGIRW/S |
Departure
| Time | 2026-05-05 18:36 |
|---|---|
| Airport | Glasgow Airport (EGPF) |
Arrival
| Time | 2026-05-05 19:12 |
|---|---|
| Airport | City of Derry Airport (EGAE) |
| Time | Latitude | Longitude | Altitude | Speed | Heading |
|---|---|---|---|---|---|
| 2026-05-05 18:06 | 55.86631 | -4.43002 | 29 ft | 0 kts | 253° |
| 2026-05-05 18:24 | 55.86630 | -4.43003 | 26 ft | 0 kts | 253° |
| 2026-05-05 18:24 | 55.86633 | -4.42991 | 26 ft | 2 kts | 253° |
| 2026-05-05 18:25 | 55.86637 | -4.42965 | 26 ft | 2 kts | 260° |
| 2026-05-05 18:25 | 55.86637 | -4.42956 | 26 ft | 2 kts | 270° |
| 2026-05-05 18:25 | 55.86630 | -4.42916 | 26 ft | 2 kts | 313° |
| 2026-05-05 18:25 | 55.86618 | -4.42900 | 26 ft | 2 kts | 337° |
| 2026-05-05 18:26 | 55.86611 | -4.42896 | 26 ft | 0 kts | 345° |
| 2026-05-05 18:26 | 55.86612 | -4.42896 | 26 ft | 0 kts | 345° |
| 2026-05-05 18:27 | 55.86616 | -4.42898 | 26 ft | 1 kts | 345° |
| 2026-05-05 18:28 | 55.86657 | -4.42918 | 26 ft | 4 kts | 345° |
| 2026-05-05 18:28 | 55.86693 | -4.42937 | 26 ft | 6 kts | 344° |
| 2026-05-05 18:28 | 55.86739 | -4.42961 | 26 ft | 7 kts | 344° |
| 2026-05-05 18:29 | 55.86797 | -4.42990 | 26 ft | 9 kts | 346° |
| 2026-05-05 18:29 | 55.86837 | -4.43072 | 26 ft | 10 kts | 268° |
| 2026-05-05 18:29 | 55.86814 | -4.43212 | 26 ft | 12 kts | 255° |
| 2026-05-05 18:29 | 55.86790 | -4.43380 | 26 ft | 15 kts | 253° |
| 2026-05-05 18:30 | 55.86756 | -4.43570 | 26 ft | 17 kts | 254° |
| 2026-05-05 18:30 | 55.86729 | -4.43742 | 26 ft | 14 kts | 246° |
| 2026-05-05 18:30 | 55.86662 | -4.43884 | 26 ft | 16 kts | 226° |
| 2026-05-05 18:30 | 55.86577 | -4.44041 | 26 ft | 18 kts | 227° |
| 2026-05-05 18:31 | 55.86484 | -4.44216 | 26 ft | 20 kts | 225° |
| 2026-05-05 18:31 | 55.86381 | -4.44407 | 26 ft | 20 kts | 227° |
| 2026-05-05 18:31 | 55.86290 | -4.44574 | 27 ft | 14 kts | 226° |
| 2026-05-05 18:31 | 55.86250 | -4.44699 | 27 ft | 11 kts | 291° |
| 2026-05-05 18:32 | 55.86279 | -4.44759 | 27 ft | 0 kts | 316° |
| 2026-05-05 18:33 | 55.86279 | -4.44760 | 27 ft | 0 kts | 316° |
| 2026-05-05 18:33 | 55.86287 | -4.44773 | 27 ft | 2 kts | 316° |
| 2026-05-05 18:33 | 55.86308 | -4.44808 | 26 ft | 5 kts | 317° |
| 2026-05-05 18:34 | 55.86341 | -4.44852 | 27 ft | 6 kts | 339° |
| 2026-05-05 18:34 | 55.86388 | -4.44827 | 27 ft | 8 kts | 42° |
| 2026-05-05 18:34 | 55.86414 | -4.44781 | 27 ft | 0 kts | 49° |
| 2026-05-05 18:35 | 55.86425 | -4.44759 | 27 ft | 17 kts | 49° |
| 2026-05-05 18:35 | 55.86692 | -4.44257 | 27 ft | 91 kts | 44° |
| 2026-05-05 18:35 | 55.87271 | -4.43185 | 73 ft | 139 kts | 47° |
| 2026-05-05 18:35 | 55.87954 | -4.41912 | 516 ft | 150 kts | 48° |
| 2026-05-05 18:36 | 55.88701 | -4.40552 | 1141 ft | 160 kts | 47° |
| 2026-05-05 18:36 | 55.89540 | -4.39138 | 1788 ft | 173 kts | 43° |
| 2026-05-05 18:36 | 55.90420 | -4.37896 | 2735 ft | 160 kts | 41° |
| 2026-05-05 18:36 | 55.91264 | -4.36745 | 3441 ft | 159 kts | 41° |
| 2026-05-05 18:37 | 55.92260 | -4.35353 | 3503 ft | 203 kts | 42° |
| 2026-05-05 18:37 | 55.93460 | -4.33638 | 3621 ft | 236 kts | 42° |
| 2026-05-05 18:37 | 55.94757 | -4.31747 | 4240 ft | 245 kts | 41° |
| 2026-05-05 18:37 | 55.96303 | -4.30466 | 5049 ft | 250 kts | 7° |
| 2026-05-05 18:38 | 55.97918 | -4.30984 | 6038 ft | 245 kts | 337° |
| 2026-05-05 18:38 | 55.99290 | -4.33016 | 6113 ft | 277 kts | 306° |
| 2026-05-05 18:38 | 56.00013 | -4.36295 | 6110 ft | 291 kts | 281° |
| 2026-05-05 18:38 | 56.00322 | -4.39818 | 6059 ft | 284 kts | 280° |
| 2026-05-05 18:39 | 56.00954 | -4.43021 | 6072 ft | 264 kts | 298° |
| 2026-05-05 18:39 | 56.01392 | -4.46054 | 6075 ft | 250 kts | 268° |
| 2026-05-05 18:39 | 56.00983 | -4.49049 | 6068 ft | 247 kts | 249° |
| 2026-05-05 18:39 | 56.00191 | -4.51736 | 6080 ft | 248 kts | 239° |
| 2026-05-05 18:40 | 55.99245 | -4.54336 | 6088 ft | 252 kts | 236° |
| 2026-05-05 18:40 | 55.98235 | -4.56957 | 6088 ft | 260 kts | 235° |
| 2026-05-05 18:40 | 55.97189 | -4.59631 | 6094 ft | 267 kts | 234° |
| 2026-05-05 18:40 | 55.96111 | -4.62377 | 6078 ft | 272 kts | 234° |
| 2026-05-05 18:41 | 55.95034 | -4.65113 | 6091 ft | 268 kts | 233° |
| 2026-05-05 18:41 | 55.93969 | -4.67814 | 6062 ft | 261 kts | 234° |
| 2026-05-05 18:41 | 55.93103 | -4.70592 | 6085 ft | 254 kts | 244° |
| 2026-05-05 18:41 | 55.92362 | -4.73423 | 6095 ft | 248 kts | 243° |
| 2026-05-05 18:42 | 55.91638 | -4.76159 | 6079 ft | 246 kts | 244° |
| 2026-05-05 18:42 | 55.90918 | -4.78889 | 6089 ft | 243 kts | 244° |
| 2026-05-05 18:42 | 55.90195 | -4.81621 | 6073 ft | 241 kts | 243° |
| 2026-05-05 18:42 | 55.89478 | -4.84304 | 6073 ft | 238 kts | 244° |
| 2026-05-05 18:43 | 55.88807 | -4.86978 | 6073 ft | 237 kts | 253° |
| 2026-05-05 18:43 | 55.88717 | -4.89880 | 6106 ft | 239 kts | 269° |
| 2026-05-05 18:43 | 55.88250 | -4.92718 | 6130 ft | 246 kts | 235° |
| 2026-05-05 18:43 | 55.86937 | -4.94771 | 6240 ft | 260 kts | 211° |
| 2026-05-05 18:44 | 55.85524 | -4.96746 | 6857 ft | 263 kts | 220° |
| 2026-05-05 18:44 | 55.84169 | -4.98884 | 7633 ft | 262 kts | 223° |
| 2026-05-05 18:44 | 55.82813 | -5.01077 | 8292 ft | 266 kts | 224° |
| 2026-05-05 18:44 | 55.81457 | -5.03282 | 8926 ft | 270 kts | 224° |
| 2026-05-05 18:45 | 55.80067 | -5.05544 | 9568 ft | 273 kts | 225° |
| 2026-05-05 18:45 | 55.78672 | -5.07812 | 10196 ft | 276 kts | 226° |
| 2026-05-05 18:45 | 55.77244 | -5.10133 | 10748 ft | 283 kts | 226° |
| 2026-05-05 18:45 | 55.75759 | -5.12543 | 11176 ft | 293 kts | 226° |
| 2026-05-05 18:46 | 55.74242 | -5.15002 | 11606 ft | 302 kts | 226° |
| 2026-05-05 18:46 | 55.72681 | -5.17529 | 12021 ft | 310 kts | 225° |
| 2026-05-05 18:46 | 55.71066 | -5.20140 | 12459 ft | 317 kts | 225° |
| 2026-05-05 18:46 | 55.69437 | -5.22770 | 13010 ft | 320 kts | 226° |
| 2026-05-05 18:47 | 55.67805 | -5.25402 | 13576 ft | 321 kts | 226° |
| 2026-05-05 18:47 | 55.66150 | -5.28069 | 14119 ft | 323 kts | 226° |
| 2026-05-05 18:47 | 55.64489 | -5.30743 | 14648 ft | 325 kts | 226° |
| 2026-05-05 18:47 | 55.62821 | -5.33423 | 15154 ft | 328 kts | 226° |
| 2026-05-05 18:48 | 55.61126 | -5.36144 | 15669 ft | 330 kts | 226° |
| 2026-05-05 18:48 | 55.59427 | -5.38869 | 16033 ft | 337 kts | 226° |
| 2026-05-05 18:48 | 55.57663 | -5.41697 | 16061 ft | 352 kts | 225° |
| 2026-05-05 18:48 | 55.55826 | -5.44633 | 16061 ft | 362 kts | 225° |
| 2026-05-05 18:49 | 55.53927 | -5.47667 | 16066 ft | 370 kts | 225° |
| 2026-05-05 18:49 | 55.52009 | -5.50726 | 16059 ft | 377 kts | 225° |
| 2026-05-05 18:49 | 55.50053 | -5.53841 | 16061 ft | 383 kts | 225° |
| 2026-05-05 18:49 | 55.48076 | -5.56986 | 16061 ft | 388 kts | 225° |
| 2026-05-05 18:50 | 55.46044 | -5.60214 | 16073 ft | 392 kts | 225° |
| 2026-05-05 18:50 | 55.44032 | -5.63429 | 16069 ft | 395 kts | 227° |
| 2026-05-05 18:50 | 55.42440 | -5.67309 | 16053 ft | 387 kts | 246° |
| 2026-05-05 18:50 | 55.41371 | -5.71629 | 16042 ft | 383 kts | 248° |
| 2026-05-05 18:51 | 55.40318 | -5.75880 | 16077 ft | 381 kts | 249° |
| 2026-05-05 18:51 | 55.39264 | -5.80128 | 16077 ft | 380 kts | 249° |
| 2026-05-05 18:51 | 55.38212 | -5.84359 | 16065 ft | 379 kts | 248° |
| 2026-05-05 18:51 | 55.37163 | -5.88569 | 16076 ft | 377 kts | 249° |
| 2026-05-05 18:52 | 55.36102 | -5.92817 | 16070 ft | 376 kts | 249° |
| 2026-05-05 18:52 | 55.35058 | -5.96991 | 16054 ft | 374 kts | 249° |
| 2026-05-05 18:52 | 55.34021 | -6.01126 | 16069 ft | 372 kts | 248° |
| 2026-05-05 18:52 | 55.32987 | -6.05245 | 16069 ft | 370 kts | 249° |
| 2026-05-05 18:53 | 55.31943 | -6.09397 | 16065 ft | 368 kts | 249° |
| 2026-05-05 18:53 | 55.30924 | -6.13440 | 16075 ft | 366 kts | 249° |
| 2026-05-05 18:53 | 55.29897 | -6.17505 | 15911 ft | 361 kts | 249° |
| 2026-05-05 18:53 | 55.28889 | -6.21483 | 15382 ft | 348 kts | 249° |
| 2026-05-05 18:54 | 55.27937 | -6.25242 | 14876 ft | 337 kts | 249° |
| 2026-05-05 18:54 | 55.26996 | -6.28948 | 14364 ft | 327 kts | 249° |
| 2026-05-05 18:54 | 55.26096 | -6.32490 | 13861 ft | 319 kts | 249° |
| 2026-05-05 18:54 | 55.25202 | -6.36001 | 13351 ft | 312 kts | 249° |
| 2026-05-05 18:55 | 55.24340 | -6.39383 | 12826 ft | 303 kts | 249° |
| 2026-05-05 18:55 | 55.23495 | -6.42696 | 12327 ft | 295 kts | 249° |
| 2026-05-05 18:55 | 55.22665 | -6.45939 | 11817 ft | 287 kts | 249° |
| 2026-05-05 18:55 | 55.21859 | -6.49090 | 11369 ft | 284 kts | 249° |
| 2026-05-05 18:56 | 55.21055 | -6.52220 | 10964 ft | 279 kts | 249° |
| 2026-05-05 18:56 | 55.20271 | -6.55273 | 10606 ft | 273 kts | 249° |
| 2026-05-05 18:56 | 55.19504 | -6.58255 | 10292 ft | 267 kts | 249° |
| 2026-05-05 18:56 | 55.18751 | -6.61180 | 10010 ft | 260 kts | 249° |
| 2026-05-05 18:57 | 55.18018 | -6.64023 | 9737 ft | 254 kts | 249° |
| 2026-05-05 18:57 | 55.17300 | -6.66801 | 9488 ft | 249 kts | 248° |
| 2026-05-05 18:57 | 55.16589 | -6.69553 | 9226 ft | 248 kts | 248° |
| 2026-05-05 18:57 | 55.15870 | -6.72337 | 8982 ft | 262 kts | 248° |
| 2026-05-05 18:58 | 55.15096 | -6.75323 | 8756 ft | 276 kts | 248° |
| 2026-05-05 18:58 | 55.14303 | -6.78373 | 8507 ft | 276 kts | 248° |
| 2026-05-05 18:58 | 55.13510 | -6.81425 | 8239 ft | 275 kts | 247° |
| 2026-05-05 18:58 | 55.12722 | -6.84453 | 7983 ft | 273 kts | 247° |
| 2026-05-05 18:59 | 55.11951 | -6.87407 | 7716 ft | 265 kts | 247° |
| 2026-05-05 18:59 | 55.11197 | -6.90298 | 7451 ft | 258 kts | 247° |
| 2026-05-05 18:59 | 55.10465 | -6.93100 | 7169 ft | 253 kts | 248° |
| 2026-05-05 18:59 | 55.09745 | -6.95851 | 6901 ft | 247 kts | 248° |
| 2026-05-05 19:00 | 55.09040 | -6.98544 | 6619 ft | 243 kts | 248° |
| 2026-05-05 19:00 | 55.08344 | -7.01199 | 6354 ft | 239 kts | 248° |
| 2026-05-05 19:00 | 55.07657 | -7.03814 | 6098 ft | 237 kts | 248° |
| 2026-05-05 19:00 | 55.06974 | -7.06413 | 5843 ft | 234 kts | 248° |
| 2026-05-05 19:01 | 55.06303 | -7.08966 | 5589 ft | 232 kts | 248° |
| 2026-05-05 19:01 | 55.05630 | -7.11522 | 5335 ft | 230 kts | 248° |
| 2026-05-05 19:01 | 55.04969 | -7.14027 | 5110 ft | 225 kts | 249° |
| 2026-05-05 19:01 | 55.04227 | -7.16348 | 4886 ft | 218 kts | 236° |
| 2026-05-05 19:02 | 55.03311 | -7.18386 | 4633 ft | 212 kts | 235° |
| 2026-05-05 19:02 | 55.02418 | -7.20388 | 4375 ft | 207 kts | 236° |
| 2026-05-05 19:02 | 55.01541 | -7.22352 | 4115 ft | 203 kts | 236° |
| 2026-05-05 19:02 | 55.00689 | -7.24259 | 3861 ft | 200 kts | 236° |
| 2026-05-05 19:03 | 54.99839 | -7.26160 | 3607 ft | 197 kts | 236° |
| 2026-05-05 19:03 | 54.98999 | -7.28036 | 3352 ft | 195 kts | 236° |
| 2026-05-05 19:03 | 54.98173 | -7.29878 | 3106 ft | 194 kts | 236° |
| 2026-05-05 19:03 | 54.97351 | -7.31709 | 2855 ft | 193 kts | 236° |
| 2026-05-05 19:04 | 54.96533 | -7.33525 | 2635 ft | 187 kts | 236° |
| 2026-05-05 19:04 | 54.95747 | -7.35258 | 2571 ft | 181 kts | 236° |
| 2026-05-05 19:04 | 54.94977 | -7.36958 | 2500 ft | 179 kts | 236° |
| 2026-05-05 19:04 | 54.94218 | -7.38640 | 2481 ft | 175 kts | 236° |
| 2026-05-05 19:05 | 54.93469 | -7.40297 | 2486 ft | 173 kts | 236° |
| 2026-05-05 19:05 | 54.92725 | -7.41951 | 2501 ft | 176 kts | 236° |
| 2026-05-05 19:05 | 54.92086 | -7.43772 | 2481 ft | 174 kts | 261° |
| 2026-05-05 19:05 | 54.92219 | -7.45723 | 2489 ft | 161 kts | 306° |
| 2026-05-05 19:06 | 54.92982 | -7.47037 | 2499 ft | 156 kts | 331° |
| 2026-05-05 19:06 | 54.93987 | -7.47735 | 2492 ft | 155 kts | 352° |
| 2026-05-05 19:06 | 54.95052 | -7.47658 | 2488 ft | 155 kts | 14° |
| 2026-05-05 19:06 | 54.96024 | -7.46826 | 2489 ft | 158 kts | 36° |
| 2026-05-05 19:07 | 54.96750 | -7.45372 | 2484 ft | 162 kts | 55° |
| 2026-05-05 19:07 | 54.97066 | -7.44193 | 2487 ft | 165 kts | 64° |
| 2026-05-05 19:07 | 54.97839 | -7.41945 | 2490 ft | 161 kts | 42° |
| 2026-05-05 19:07 | 54.98694 | -7.40718 | 2489 ft | 158 kts | 34° |
| 2026-05-05 19:08 | 54.99411 | -7.39298 | 2462 ft | 155 kts | 64° |
| 2026-05-05 19:08 | 54.99765 | -7.37569 | 2438 ft | 151 kts | 64° |
| 2026-05-05 19:08 | 55.00129 | -7.35901 | 2249 ft | 144 kts | 64° |
| 2026-05-05 19:08 | 55.00471 | -7.34310 | 2070 ft | 137 kts | 64° |
| 2026-05-05 19:09 | 55.00796 | -7.32790 | 1895 ft | 130 kts | 63° |
| 2026-05-05 19:09 | 55.01095 | -7.31390 | 1713 ft | 118 kts | 63° |
| 2026-05-05 19:09 | 55.01374 | -7.30093 | 1526 ft | 116 kts | 63° |
| 2026-05-05 19:09 | 55.01664 | -7.28740 | 1378 ft | 120 kts | 64° |
| 2026-05-05 19:10 | 55.01958 | -7.27364 | 1222 ft | 125 kts | 63° |
| 2026-05-05 19:10 | 55.02266 | -7.25921 | 1064 ft | 126 kts | 64° |
| 2026-05-05 19:10 | 55.02563 | -7.24532 | 891 ft | 121 kts | 64° |
| 2026-05-05 19:10 | 55.02853 | -7.23172 | 718 ft | 118 kts | 64° |
| 2026-05-05 19:11 | 55.03138 | -7.21836 | 560 ft | 118 kts | 65° |
| 2026-05-05 19:11 | 55.03435 | -7.20494 | 421 ft | 118 kts | 62° |
| 2026-05-05 19:11 | 55.03737 | -7.19151 | 274 ft | 121 kts | 67° |
| 2026-05-05 19:11 | 55.03999 | -7.17719 | 72 ft | 126 kts | 68° |
| 2026-05-05 19:12 | 55.04236 | -7.16354 | 6 ft | 107 kts | 69° |
| 2026-05-05 19:12 | 55.04387 | -7.15524 | 2 ft | 13 kts | 73° |
| 2026-05-05 19:12 | 55.04394 | -7.15483 | 2 ft | 0 kts | 81° |
| 2026-05-05 19:12 | 55.04391 | -7.15479 | 2 ft | 0 kts | 153° |
| 2026-05-05 19:13 | 55.04383 | -7.15512 | 2 ft | 7 kts | 261° |
| 2026-05-05 19:13 | 55.04366 | -7.15646 | 2 ft | 15 kts | 256° |
| 2026-05-05 19:13 | 55.04330 | -7.15856 | 2 ft | 14 kts | 252° |
| 2026-05-05 19:13 | 55.04232 | -7.15933 | 4 ft | 21 kts | 166° |
| 2026-05-05 19:14 | 55.04089 | -7.15869 | 7 ft | 14 kts | 148° |
| 2026-05-05 19:14 | 55.04076 | -7.15742 | 7 ft | 11 kts | 78° |
| 2026-05-05 19:14 | 55.04065 | -7.15601 | 6 ft | 10 kts | 154° |
| 2026-05-05 19:14 | 55.04026 | -7.15585 | 7 ft | 0 kts | 168° |